Impacts METAR Board
IDs:

KLNC - Lancaster Arpt, TX, US

Updated at: 1300 UTC 13 Dec 2019
Potential Impact None Slight Moderate High
Time 13/01Z 13/02Z 13/03Z 13/04Z 13/05Z 13/06Z 13/07Z 13/08Z 13/09Z 13/10Z 13/11Z 13/12Z 13/13Z
Temp50 46 45 45 41 40 40 40 40 40 39 40 41
Dewpt40 40 40 40 39 38 39 39 38 39 38 39 41
Altim30.10 30.07 30.07 30.07 30.06 30.04 30.00 29.97 29.96 29.95 29.93 29.92 29.91
VIS10 10 10 10 10 10 10 10 5 1 0.75 0.25 5
CIG-- -- -- -- -- -- -- -- -- 7 1 1 --
CoverCLRCLRCLRCLRCLRCLRCLRCLRCLROVXBKNOVCCLR
FltCatVFRVFRVFRVFRVFRVFRVFRVFRMVFRIFRLIFRLIFRMVFR
WX----------------BRBRBRFGBR
WDir19016000000140000170190
WSpd4 3 0 0 0 0 0 3 0 0 0 3 5
WGst-- -- -- -- -- -- -- -- -- -- -- -- --
Raw hourly METARs
KLNC 130055Z AUTO 19004KT 10SM CLR 10/05 A3010 RMK AO2 T01000047
KLNC 130155Z AUTO 16003KT 10SM CLR 08/04 A3007 RMK AO2 T00780044
KLNC 130255Z AUTO 00000KT 10SM CLR 07/05 A3007 RMK AO2 T00740046
KLNC 130355Z AUTO 00000KT 10SM CLR 07/05 A3007 RMK AO2 T00700045
KLNC 130455Z AUTO 00000KT 10SM CLR 05/04 A3006 RMK AO2 T00520038
KLNC 130555Z AUTO 00000KT 10SM CLR 05/03 A3004 RMK AO2 T00470034 10112 20047 401401017
KLNC 130655Z AUTO 00000KT 10SM CLR 05/04 A3000 RMK AO2 T00470038
KLNC 130755Z AUTO 14003KT 10SM CLR 05/04 A2997 RMK AO2 T00450037
KLNC 130855Z AUTO 00000KT 5SM BR CLR 04/04 A2996 RMK AO2 T00420035
KLNC 130955Z AUTO 00000KT 1SM BR VV007 05/04 A2995 RMK AO2 T00450040
KLNC 131055Z AUTO 00000KT 3/4SM BR BKN001 04/04 A2993 RMK AO2 T00400035
KLNC 131155Z AUTO 17003KT 1/4SM FG OVC001 05/04 A2992 RMK AO2 T00450041 10050 20040
KLNC 131255Z AUTO 19005KT 5SM BR CLR 05/05 A2991 RMK AO2 T00520048



Page loaded:  13:49 UTC  |   05:49 AM Pacific  |   06:49 AM Mountain  |   07:49 AM Central  |   08:49 AM Eastern

 

ADVISORIES

FORECASTS

FORECASTS

OBSERVATIONS

USER TOOLS

ABOUT US